createdAt,value
2023-05-06T00:02:28.536Z,13.10
2023-05-06T00:05:14.405Z,12.52
2023-05-06T00:08:00.215Z,12.86
2023-05-06T00:10:46.093Z,12.30
2023-05-06T00:13:31.940Z,12.58
2023-05-06T00:16:17.832Z,12.24
2023-05-06T00:19:03.752Z,12.45
2023-05-06T00:21:49.701Z,12.54
2023-05-06T00:24:35.403Z,12.49
2023-05-06T00:27:21.257Z,12.36
2023-05-06T00:30:07.141Z,13.02
2023-05-06T00:32:52.925Z,13.10
2023-05-06T00:35:38.843Z,13.01
2023-05-06T00:38:24.764Z,13.01
2023-05-06T00:41:10.543Z,12.96
2023-05-06T00:43:56.421Z,13.21
2023-05-06T00:46:42.272Z,13.33
2023-05-06T00:49:28.162Z,13.49
2023-05-06T00:52:14.159Z,13.58
2023-05-06T00:55:00.040Z,13.95
2023-05-06T00:57:46.079Z,14.10
2023-05-06T01:00:32.006Z,13.52
2023-05-06T01:03:19.862Z,13.49
2023-05-06T01:06:06.197Z,13.68
2023-05-06T01:08:52.148Z,13.53
2023-05-06T01:11:37.949Z,13.66
2023-05-06T01:14:23.811Z,13.49
2023-05-06T01:17:10.248Z,13.42
2023-05-06T01:19:56.242Z,13.61
2023-05-06T01:22:42.097Z,13.78
2023-05-06T01:25:27.917Z,13.58
2023-05-06T01:28:13.843Z,13.43
2023-05-06T01:30:59.735Z,13.38
2023-05-06T01:33:45.686Z,13.15
2023-05-06T01:36:31.736Z,14.27
2023-05-06T01:39:17.547Z,13.28
2023-05-06T01:42:03.362Z,13.19
2023-05-06T01:44:49.248Z,13.72
2023-05-06T01:47:35.146Z,13.49
2023-05-06T01:50:20.976Z,13.42
2023-05-06T01:53:06.837Z,13.20
2023-05-06T01:55:52.666Z,13.11
2023-05-06T01:58:38.513Z,13.22
2023-05-06T02:01:26.487Z,13.27
2023-05-06T02:04:12.372Z,13.67
2023-05-06T02:06:58.377Z,13.54
2023-05-06T02:09:44.135Z,13.35
2023-05-06T02:12:30.325Z,13.19
2023-05-06T02:15:16.254Z,13.03
2023-05-06T02:18:02.046Z,13.20
2023-05-06T02:20:47.918Z,13.02
2023-05-06T02:23:33.816Z,12.72
2023-05-06T02:26:19.662Z,12.74
2023-05-06T02:29:05.657Z,12.82
2023-05-06T02:31:51.458Z,13.10
2023-05-06T02:34:37.396Z,13.43
2023-05-06T02:37:23.318Z,13.56
2023-05-06T02:40:09.145Z,13.08
2023-05-06T02:42:55.110Z,13.00
2023-05-06T02:45:40.821Z,13.26
2023-05-06T02:48:26.695Z,13.38
2023-05-06T02:51:12.777Z,13.50
2023-05-06T02:53:58.494Z,13.35
2023-05-06T02:56:44.378Z,13.34
2023-05-06T02:59:30.185Z,13.00
2023-05-06T03:02:15.889Z,12.94
2023-05-06T03:05:01.884Z,12.72
2023-05-06T03:07:47.701Z,12.75
2023-05-06T03:10:33.652Z,12.68
2023-05-06T03:13:19.575Z,12.62
2023-05-06T03:16:05.444Z,12.56
2023-05-06T03:18:51.541Z,12.29
2023-05-06T03:21:37.309Z,11.89
2023-05-06T03:24:23.172Z,11.76
2023-05-06T03:27:08.942Z,11.49
2023-05-06T03:29:54.759Z,11.43
2023-05-06T03:32:40.626Z,11.43
2023-05-06T03:35:26.558Z,11.35
2023-05-06T03:38:12.305Z,11.33
2023-05-06T03:40:58.085Z,11.22
2023-05-06T03:43:43.762Z,11.14
2023-05-06T03:46:29.767Z,11.21
2023-05-06T03:49:15.858Z,11.06
2023-05-06T03:52:01.796Z,10.96
2023-05-06T03:54:47.819Z,10.92
2023-05-06T03:57:33.671Z,11.03
2023-05-06T04:00:19.473Z,10.78
2023-05-06T04:03:05.315Z,10.78
2023-05-06T04:05:51.154Z,10.79
2023-05-06T04:08:37.114Z,10.96
2023-05-06T04:11:22.979Z,11.20
2023-05-06T04:14:08.773Z,11.07
2023-05-06T04:16:54.759Z,11.08
2023-05-06T04:19:40.514Z,11.16
2023-05-06T04:22:26.421Z,11.37
2023-05-06T04:25:12.662Z,11.02
2023-05-06T04:27:58.993Z,11.15
2023-05-06T04:30:44.929Z,11.14
2023-05-06T04:33:30.825Z,11.20
2023-05-06T04:36:16.666Z,11.27
2023-05-06T04:39:02.491Z,11.45
2023-05-06T04:41:48.318Z,11.62
2023-05-06T04:44:34.148Z,11.64
2023-05-06T04:47:19.976Z,11.98
2023-05-06T04:50:05.780Z,11.85
2023-05-06T04:52:51.706Z,12.23
2023-05-06T04:55:37.636Z,12.33
2023-05-06T04:58:23.494Z,12.27
2023-05-06T05:01:09.504Z,12.24
2023-05-06T05:03:55.291Z,12.51
2023-05-06T05:06:41.149Z,12.69
2023-05-06T05:09:26.853Z,12.61
2023-05-06T05:12:12.818Z,12.55
2023-05-06T05:14:58.828Z,12.56
2023-05-06T05:17:44.812Z,12.52
2023-05-06T05:20:30.687Z,12.75
2023-05-06T05:23:16.606Z,13.09
2023-05-06T05:26:02.501Z,13.47
2023-05-06T05:28:48.462Z,13.79
2023-05-06T05:31:34.340Z,13.59
2023-05-06T05:34:20.162Z,13.79
2023-05-06T05:37:05.976Z,14.06
2023-05-06T05:39:51.781Z,14.10
2023-05-06T05:42:37.505Z,14.52
2023-05-06T05:45:23.454Z,14.76
2023-05-06T05:48:10.229Z,14.43
2023-05-06T05:50:56.172Z,14.52
2023-05-06T05:53:42.025Z,14.38
2023-05-06T05:56:27.874Z,14.25
2023-05-06T05:59:13.736Z,14.40
2023-05-06T06:01:59.473Z,14.32
2023-05-06T06:04:45.308Z,14.56
2023-05-06T06:07:31.168Z,14.76
2023-05-06T06:10:17.022Z,14.71
2023-05-06T06:13:03.068Z,14.89
2023-05-06T06:15:49.201Z,14.87
2023-05-06T06:18:37.124Z,14.93
2023-05-06T06:21:22.973Z,15.02
2023-05-06T06:24:08.752Z,15.00
2023-05-06T06:26:54.610Z,15.06
2023-05-06T06:29:40.563Z,15.00
2023-05-06T06:32:26.421Z,15.13
2023-05-06T06:35:12.413Z,15.28
2023-05-06T06:37:58.092Z,15.36
2023-05-06T06:40:44.024Z,15.94
2023-05-06T06:43:30.007Z,15.84
2023-05-06T06:46:16.048Z,16.41
2023-05-06T06:49:01.993Z,16.96
2023-05-06T06:51:47.838Z,16.68
2023-05-06T06:54:33.658Z,16.18
2023-05-06T06:57:19.583Z,16.52
2023-05-06T07:00:05.435Z,16.56
2023-05-06T07:02:51.376Z,17.37
2023-05-06T07:05:37.316Z,15.70
2023-05-06T07:08:23.116Z,16.54
2023-05-06T07:11:09.098Z,16.34
2023-05-06T07:13:54.942Z,16.33
2023-05-06T07:16:40.821Z,16.27
2023-05-06T07:19:26.924Z,16.22
2023-05-06T07:22:12.802Z,16.90
2023-05-06T07:24:58.642Z,16.47
2023-05-06T07:27:44.631Z,16.75
2023-05-06T07:30:30.452Z,16.85
2023-05-06T07:33:16.256Z,16.94
2023-05-06T07:36:01.967Z,17.01
2023-05-06T07:38:47.963Z,16.94
2023-05-06T07:41:33.943Z,16.35
2023-05-06T07:44:19.791Z,17.23
2023-05-06T07:47:05.897Z,17.67
2023-05-06T07:49:52.150Z,17.88
2023-05-06T07:52:38.098Z,17.38
2023-05-06T07:55:24.034Z,16.46
2023-05-06T07:58:09.816Z,16.72
2023-05-06T08:00:55.722Z,16.02
2023-05-06T08:03:41.850Z,17.69
2023-05-06T08:06:28.085Z,16.89
2023-05-06T08:09:22.260Z,17.35
2023-05-06T08:12:08.994Z,17.67
2023-05-06T08:14:54.827Z,18.55
2023-05-06T08:17:40.783Z,18.53
2023-05-06T08:20:26.692Z,18.05
2023-05-06T08:23:12.637Z,17.49
2023-05-06T08:25:58.442Z,18.23
2023-05-06T08:28:45.785Z,18.66
2023-05-06T08:31:31.736Z,18.45
2023-05-06T08:34:17.730Z,18.38
2023-05-06T08:37:03.556Z,18.19
2023-05-06T08:39:49.853Z,17.70
2023-05-06T08:42:35.785Z,18.35
2023-05-06T08:45:21.787Z,17.87
2023-05-06T08:48:07.647Z,18.38
2023-05-06T08:50:53.581Z,18.63
2023-05-06T08:53:39.369Z,19.12
2023-05-06T08:56:25.200Z,19.35
2023-05-06T08:59:11.075Z,18.44
2023-05-06T09:01:56.865Z,18.64
2023-05-06T09:04:42.748Z,18.14
2023-05-06T09:07:28.585Z,17.63
2023-05-06T09:10:14.510Z,17.64
2023-05-06T09:13:00.569Z,17.22
2023-05-06T09:15:46.691Z,17.47
2023-05-06T09:18:32.650Z,17.61
2023-05-06T09:21:18.501Z,17.15
2023-05-06T09:24:04.412Z,17.71
2023-05-06T09:26:50.366Z,17.68
2023-05-06T09:29:36.152Z,17.51
2023-05-06T09:32:22.118Z,17.77
2023-05-06T09:35:08.185Z,17.51
2023-05-06T09:37:54.161Z,18.03
2023-05-06T09:40:40.183Z,19.12
2023-05-06T09:43:26.091Z,19.66
2023-05-06T09:46:11.951Z,19.72
2023-05-06T09:48:57.820Z,20.30
2023-05-06T09:51:43.723Z,20.44
2023-05-06T09:54:29.592Z,18.75
2023-05-06T09:57:15.575Z,18.73
2023-05-06T10:00:01.443Z,18.97
2023-05-06T10:02:47.443Z,18.76
2023-05-06T10:05:33.360Z,19.29
2023-05-06T10:08:19.289Z,18.81
2023-05-06T10:11:05.303Z,19.33
2023-05-06T10:13:51.178Z,20.24
2023-05-06T10:16:37.235Z,20.59
2023-05-06T10:19:23.570Z,20.87
2023-05-06T10:22:09.278Z,20.76
2023-05-06T10:24:55.057Z,19.44
2023-05-06T10:27:41.011Z,18.45
2023-05-06T10:30:27.299Z,18.54
2023-05-06T10:33:13.163Z,18.31
2023-05-06T10:35:58.961Z,18.30
2023-05-06T10:38:44.852Z,18.33
2023-05-06T10:41:31.000Z,18.77
2023-05-06T10:44:17.041Z,19.28
2023-05-06T10:47:03.028Z,18.64
2023-05-06T10:49:48.840Z,18.91
2023-05-06T10:52:34.678Z,18.75
2023-05-06T10:55:20.472Z,19.86
2023-05-06T10:58:06.184Z,19.60
2023-05-06T11:00:52.130Z,19.83
2023-05-06T11:03:38.134Z,19.01
2023-05-06T11:06:23.872Z,20.15
2023-05-06T11:09:09.840Z,19.44
2023-05-06T11:11:55.694Z,20.11
2023-05-06T11:14:41.517Z,19.60
2023-05-06T11:17:27.575Z,20.18
2023-05-06T11:20:13.630Z,21.45
2023-05-06T11:22:59.598Z,20.53
2023-05-06T11:25:45.488Z,19.98
2023-05-06T11:28:31.184Z,19.39
2023-05-06T11:31:17.111Z,19.99
2023-05-06T11:34:02.988Z,20.77
2023-05-06T11:36:48.833Z,20.28
2023-05-06T11:39:39.976Z,20.54
2023-05-06T11:42:27.160Z,20.89
2023-05-06T11:45:12.982Z,20.07
2023-05-06T11:47:59.002Z,19.72
2023-05-06T11:50:45.044Z,19.74
2023-05-06T11:53:30.824Z,19.77
2023-05-06T11:56:16.552Z,20.34
2023-05-06T11:59:02.443Z,21.00
2023-05-06T12:01:48.364Z,21.78
2023-05-06T12:04:36.192Z,22.93
2023-05-06T12:07:22.144Z,22.05
2023-05-06T12:10:08.024Z,22.60
2023-05-06T12:12:54.364Z,21.11
2023-05-06T12:15:40.099Z,20.80
2023-05-06T12:18:25.962Z,21.44
2023-05-06T12:21:11.874Z,22.12
2023-05-06T12:23:57.749Z,22.54
2023-05-06T12:26:43.871Z,22.42
2023-05-06T12:29:29.625Z,22.91
2023-05-06T12:32:15.456Z,23.07
2023-05-06T12:35:01.347Z,23.72
2023-05-06T12:37:47.184Z,24.13
2023-05-06T12:43:18.944Z,22.54
2023-05-06T12:46:04.790Z,22.59
2023-05-06T12:48:50.792Z,21.73
2023-05-06T12:51:36.637Z,20.59
2023-05-06T12:54:22.610Z,20.56
2023-05-06T12:57:08.406Z,21.37
2023-05-06T12:59:54.290Z,21.82
2023-05-06T13:02:40.219Z,22.41
2023-05-06T13:05:26.461Z,21.76
2023-05-06T13:08:12.485Z,21.65
2023-05-06T13:10:58.482Z,22.58
2023-05-06T13:13:44.389Z,22.51
2023-05-06T13:16:30.411Z,21.94
2023-05-06T13:22:05.007Z,21.14
2023-05-06T13:24:50.919Z,21.08
2023-05-06T13:27:36.709Z,20.98
2023-05-06T13:30:22.498Z,20.53
2023-05-06T13:33:08.360Z,21.55
2023-05-06T13:35:54.297Z,20.99
2023-05-06T13:38:40.202Z,20.67
2023-05-06T13:41:26.225Z,20.53
2023-05-06T13:44:11.968Z,20.84
2023-05-06T13:46:58.020Z,21.58
2023-05-06T13:49:44.138Z,21.16
2023-05-06T13:52:29.965Z,21.60
2023-05-06T13:55:17.362Z,21.25
2023-05-06T13:58:04.714Z,21.73
2023-05-06T14:00:50.679Z,21.11
2023-05-06T14:03:36.604Z,20.82
2023-05-06T14:06:22.360Z,21.03
2023-05-06T14:09:08.239Z,21.19
2023-05-06T14:11:54.209Z,21.00
2023-05-06T14:14:40.063Z,21.09
2023-05-06T14:17:26.082Z,20.76
2023-05-06T14:20:12.020Z,20.40
2023-05-06T14:22:58.182Z,20.52
2023-05-06T14:25:44.225Z,20.31
2023-05-06T14:28:30.227Z,20.30
2023-05-06T14:31:16.166Z,20.07
2023-05-06T14:34:01.964Z,20.11
2023-05-06T14:36:47.855Z,19.90
2023-05-06T14:39:33.969Z,19.20
2023-05-06T14:42:19.847Z,19.43
2023-05-06T14:45:05.717Z,19.88
2023-05-06T14:47:51.604Z,19.79
2023-05-06T14:50:37.524Z,20.55
2023-05-06T14:53:23.493Z,20.20
2023-05-06T14:56:09.337Z,20.06
2023-05-06T14:58:55.077Z,19.82
2023-05-06T15:01:40.926Z,19.41
2023-05-06T15:04:26.786Z,18.76
2023-05-06T15:07:12.722Z,18.26
2023-05-06T15:09:58.662Z,17.78
2023-05-06T15:12:44.447Z,17.61
2023-05-06T15:15:30.506Z,18.64
2023-05-06T15:18:16.512Z,17.47
2023-05-06T15:21:02.321Z,17.01
2023-05-06T15:23:48.370Z,17.26
2023-05-06T15:26:34.230Z,16.94
2023-05-06T15:29:20.111Z,17.14
2023-05-06T15:32:06.199Z,17.57
2023-05-06T15:34:52.313Z,17.29
2023-05-06T15:37:38.338Z,16.22
2023-05-06T15:40:24.211Z,16.22
2023-05-06T15:43:11.148Z,16.11
2023-05-06T15:46:00.165Z,16.70
2023-05-06T15:48:46.223Z,17.76
2023-05-06T15:51:31.973Z,18.65
2023-05-06T15:54:17.981Z,18.86
2023-05-06T15:57:05.098Z,18.82
2023-05-06T15:59:52.665Z,19.72
2023-05-06T16:02:39.011Z,20.56
2023-05-06T16:05:25.433Z,20.85
2023-05-06T16:08:11.300Z,21.32
2023-05-06T16:10:57.171Z,20.64
2023-05-06T16:13:42.954Z,20.80
2023-05-06T16:16:28.843Z,20.89
2023-05-06T16:19:14.714Z,21.08
2023-05-06T16:22:00.563Z,20.41
2023-05-06T16:24:46.533Z,20.25
2023-05-06T16:27:32.353Z,21.34
2023-05-06T16:30:18.211Z,22.27
2023-05-06T16:33:04.329Z,22.82
2023-05-06T16:35:50.135Z,23.36
2023-05-06T16:38:36.026Z,23.27
2023-05-06T16:41:21.974Z,22.14
2023-05-06T16:44:07.713Z,22.40
2023-05-06T16:46:53.642Z,21.47
2023-05-06T16:49:39.612Z,21.52
2023-05-06T16:52:25.551Z,21.28
2023-05-06T16:55:11.425Z,21.51
2023-05-06T16:57:57.140Z,21.31
2023-05-06T17:00:43.102Z,21.19
2023-05-06T17:03:29.482Z,21.41
2023-05-06T17:06:15.437Z,22.07
2023-05-06T17:09:01.412Z,22.56
2023-05-06T17:11:47.141Z,21.98
2023-05-06T17:14:33.176Z,22.74
2023-05-06T17:17:20.889Z,23.12
2023-05-06T17:20:07.553Z,23.19
2023-05-06T17:22:53.458Z,23.34
2023-05-06T17:25:39.336Z,23.02
2023-05-06T17:28:25.127Z,21.98
2023-05-06T17:31:11.015Z,21.97
2023-05-06T17:33:56.937Z,22.49
2023-05-06T17:36:42.827Z,21.86
2023-05-06T17:39:28.822Z,20.98
2023-05-06T17:42:15.032Z,20.96
2023-05-06T17:45:01.056Z,20.58
2023-05-06T17:47:47.078Z,20.62
2023-05-06T17:50:33.280Z,20.38
2023-05-06T17:53:19.154Z,19.96
2023-05-06T17:56:05.011Z,19.82
2023-05-06T17:58:50.940Z,20.52
2023-05-06T18:01:36.782Z,20.88
2023-05-06T18:04:22.709Z,20.87
2023-05-06T18:07:08.747Z,21.14
2023-05-06T18:09:54.670Z,21.54
2023-05-06T18:12:40.641Z,21.61
2023-05-06T18:15:26.530Z,21.87
2023-05-06T18:18:12.451Z,22.16
2023-05-06T18:21:00.177Z,21.66
2023-05-06T18:23:46.125Z,20.59
2023-05-06T18:26:43.857Z,20.01
2023-05-06T18:29:31.012Z,19.37
2023-05-06T18:32:17.061Z,18.46
2023-05-06T18:35:02.911Z,17.68
2023-05-06T18:37:48.814Z,17.16
2023-05-06T18:40:34.654Z,16.73
2023-05-06T18:43:20.502Z,16.60
2023-05-06T18:46:06.556Z,16.09
2023-05-06T18:48:52.391Z,15.88
2023-05-06T18:51:38.367Z,15.48
2023-05-06T18:54:24.334Z,15.45
2023-05-06T18:57:10.163Z,15.23
2023-05-06T18:59:56.058Z,15.07
2023-05-06T19:02:41.906Z,14.83
2023-05-06T19:05:27.807Z,14.83
2023-05-06T19:08:13.743Z,14.86
2023-05-06T19:11:01.604Z,14.58
2023-05-06T19:13:47.512Z,14.55
2023-05-06T19:16:33.620Z,14.58
2023-05-06T19:19:19.583Z,14.49
2023-05-06T19:22:05.550Z,14.19
2023-05-06T19:24:51.431Z,14.39
2023-05-06T19:27:37.318Z,14.44
2023-05-06T19:30:23.203Z,14.34
2023-05-06T19:33:09.093Z,14.32
2023-05-06T19:35:54.996Z,14.56
2023-05-06T19:38:40.831Z,14.53
2023-05-06T19:41:26.628Z,14.48
2023-05-06T19:44:12.692Z,14.41
2023-05-06T19:46:58.822Z,14.23
2023-05-06T19:49:44.833Z,14.29
2023-05-06T19:52:30.935Z,14.38
2023-05-06T19:55:16.675Z,14.29
2023-05-06T19:58:02.589Z,14.26
2023-05-06T20:00:48.565Z,14.13
2023-05-06T20:03:34.584Z,14.05
2023-05-06T20:06:20.808Z,14.12
2023-05-06T20:09:06.737Z,14.07
2023-05-06T20:11:52.648Z,14.18
2023-05-06T20:14:38.571Z,14.11
2023-05-06T20:17:24.406Z,14.22
2023-05-06T20:20:10.393Z,14.25
2023-05-06T20:22:56.147Z,14.11
2023-05-06T20:25:42.033Z,13.95
2023-05-06T20:28:27.900Z,13.80
2023-05-06T20:31:13.710Z,13.66
2023-05-06T20:33:59.592Z,13.55
2023-05-06T20:36:45.376Z,13.58
2023-05-06T20:39:31.186Z,13.74
2023-05-06T20:42:16.957Z,13.80
2023-05-06T20:45:02.828Z,13.81
2023-05-06T20:47:48.645Z,13.81
2023-05-06T20:50:34.605Z,13.62
2023-05-06T20:53:20.434Z,13.78
2023-05-06T20:56:06.282Z,13.85
2023-05-06T20:58:52.099Z,13.84
2023-05-06T21:01:38.005Z,13.97
2023-05-06T21:04:23.908Z,13.89
2023-05-06T21:07:09.640Z,13.87
2023-05-06T21:09:55.616Z,13.93
2023-05-06T21:12:41.537Z,13.87
2023-05-06T21:15:27.399Z,13.77
2023-05-06T21:18:13.557Z,13.75
2023-05-06T21:20:59.583Z,13.75
2023-05-06T21:23:45.476Z,13.56
2023-05-06T21:26:31.565Z,13.45
2023-05-06T21:29:17.456Z,13.31
2023-05-06T21:32:03.447Z,13.44
2023-05-06T21:34:49.377Z,13.76
2023-05-06T21:37:35.182Z,13.54
2023-05-06T21:40:21.240Z,13.38
2023-05-06T21:43:07.035Z,13.37
2023-05-06T21:45:53.050Z,13.31
2023-05-06T21:48:39.277Z,13.37
2023-05-06T21:51:25.084Z,13.49
2023-05-06T21:54:11.030Z,13.67
2023-05-06T21:56:56.870Z,13.63
2023-05-06T21:59:42.709Z,13.79
2023-05-06T22:02:28.803Z,13.98
2023-05-06T22:05:14.865Z,13.72
2023-05-06T22:08:00.764Z,13.78
2023-05-06T22:10:46.787Z,13.87
2023-05-06T22:13:32.597Z,13.77
2023-05-06T22:16:18.532Z,13.86
2023-05-06T22:19:05.080Z,13.58
2023-05-06T22:21:53.513Z,13.66
2023-05-06T22:24:39.506Z,13.37
2023-05-06T22:27:25.492Z,13.36
2023-05-06T22:30:11.334Z,13.09
2023-05-06T22:32:57.283Z,13.02
2023-05-06T22:35:43.166Z,13.07
2023-05-06T22:38:29.101Z,13.25
2023-05-06T22:41:16.123Z,13.05
2023-05-06T22:44:03.874Z,13.07
2023-05-06T22:46:49.755Z,13.41
2023-05-06T22:49:35.725Z,13.54
2023-05-06T22:52:21.304Z,13.29
2023-05-06T22:55:09.458Z,13.45
2023-05-06T22:57:55.654Z,13.35
2023-05-06T23:04:16.358Z,14.34
2023-05-06T23:07:02.342Z,15.00
2023-05-06T23:09:48.043Z,14.49
2023-05-06T23:12:34.007Z,14.55
2023-05-06T23:15:19.825Z,15.20
2023-05-06T23:18:05.618Z,15.68
2023-05-06T23:20:51.503Z,15.94
2023-05-06T23:23:37.321Z,15.88
2023-05-06T23:26:25.128Z,15.09
2023-05-06T23:29:11.028Z,14.72
2023-05-06T23:31:56.861Z,14.87
2023-05-06T23:34:42.900Z,14.87
2023-05-06T23:37:28.956Z,15.06
2023-05-06T23:40:14.712Z,15.19
2023-05-06T23:43:00.610Z,15.85
2023-05-06T23:45:46.468Z,16.27
2023-05-06T23:48:32.280Z,16.50
2023-05-06T23:51:18.197Z,17.03
2023-05-06T23:54:03.938Z,17.54
2023-05-06T23:56:49.816Z,17.89
2023-05-06T23:59:35.803Z,17.06
